createdAt,value
2018-08-24T00:00:47.233Z,21.23
2018-08-24T00:03:15.342Z,21.27
2018-08-24T00:05:44.018Z,21.30
2018-08-24T00:08:12.346Z,21.32
2018-08-24T00:10:40.860Z,21.30
2018-08-24T00:13:09.657Z,21.22
2018-08-24T00:15:38.104Z,21.25
2018-08-24T00:18:06.551Z,21.24
2018-08-24T00:20:34.657Z,21.27
2018-08-24T00:23:02.785Z,21.27
2018-08-24T00:25:31.251Z,21.24
2018-08-24T00:27:59.366Z,21.26
2018-08-24T00:30:27.518Z,21.31
2018-08-24T00:32:56.069Z,21.26
2018-08-24T00:35:24.208Z,21.29
2018-08-24T00:37:52.678Z,21.34
2018-08-24T00:40:26.937Z,21.36
2018-08-24T00:42:55.439Z,21.40
2018-08-24T00:45:23.695Z,21.39
2018-08-24T00:47:51.881Z,21.33
2018-08-24T00:50:20.364Z,21.27
2018-08-24T00:52:48.846Z,21.20
2018-08-24T00:55:17.309Z,21.12
2018-08-24T00:57:45.742Z,21.05
2018-08-24T01:00:13.854Z,21.04
2018-08-24T01:02:42.345Z,21.03
2018-08-24T01:05:11.035Z,20.94
2018-08-24T01:07:44.789Z,20.85
2018-08-24T01:10:18.542Z,20.77
2018-08-24T01:12:46.886Z,20.68
2018-08-24T01:15:15.518Z,20.66
2018-08-24T01:17:49.291Z,20.63
2018-08-24T01:20:19.763Z,20.65
2018-08-24T01:22:48.186Z,20.72
2018-08-24T01:25:16.648Z,20.71
2018-08-24T01:27:45.145Z,20.66
2018-08-24T01:30:13.594Z,20.66
2018-08-24T01:32:41.954Z,20.61
2018-08-24T01:35:10.669Z,20.54
2018-08-24T01:37:39.100Z,20.45
2018-08-24T01:40:07.553Z,20.31
2018-08-24T01:42:35.662Z,20.17
2018-08-24T01:45:03.778Z,20.02
2018-08-24T01:47:31.866Z,19.92
2018-08-24T01:50:00.366Z,19.78
2018-08-24T01:52:28.811Z,19.71
2018-08-24T01:54:57.517Z,19.74
2018-08-24T01:57:25.666Z,19.86
2018-08-24T01:59:54.105Z,20.02
2018-08-24T02:02:22.549Z,20.04
2018-08-24T02:04:50.986Z,20.03
2018-08-24T02:07:19.704Z,20.00
2018-08-24T02:09:48.132Z,19.98
2018-08-24T02:12:21.982Z,19.95
2018-08-24T02:14:50.427Z,19.97
2018-08-24T02:17:24.178Z,19.98
2018-08-24T02:19:57.898Z,19.86
2018-08-24T02:22:26.353Z,19.92
2018-08-24T02:24:54.486Z,20.01
2018-08-24T02:27:22.606Z,20.09
2018-08-24T02:29:55.242Z,20.10
2018-08-24T02:32:23.710Z,19.92
2018-08-24T02:34:52.137Z,19.80
2018-08-24T02:37:20.245Z,19.81
2018-08-24T02:39:48.377Z,19.83
2018-08-24T02:42:17.268Z,19.81
2018-08-24T02:44:45.378Z,19.73
2018-08-24T02:47:14.450Z,19.69
2018-08-24T02:49:43.247Z,19.48
2018-08-24T02:52:11.618Z,19.35
2018-08-24T02:54:40.059Z,19.28
2018-08-24T02:57:08.557Z,19.23
2018-08-24T02:59:36.878Z,19.27
2018-08-24T03:02:05.590Z,19.38
2018-08-24T03:04:33.966Z,19.44
2018-08-24T03:07:02.686Z,19.46
2018-08-24T03:09:30.809Z,19.49
2018-08-24T03:11:59.286Z,19.50
2018-08-24T03:14:27.725Z,19.47
2018-08-24T03:17:01.642Z,19.31
2018-08-24T03:19:30.125Z,19.08
2018-08-24T03:21:58.583Z,18.99
2018-08-24T03:24:27.257Z,18.99
2018-08-24T03:26:55.714Z,18.84
2018-08-24T03:29:24.446Z,18.71
2018-08-24T03:31:52.886Z,18.64
2018-08-24T03:34:21.372Z,18.59
2018-08-24T03:36:49.846Z,18.56
2018-08-24T03:39:18.761Z,18.46
2018-08-24T03:41:47.211Z,18.52
2018-08-24T03:44:15.654Z,18.58
2018-08-24T03:46:43.783Z,18.68
2018-08-24T03:49:12.217Z,18.67
2018-08-24T03:51:40.870Z,18.62
2018-08-24T03:54:14.465Z,18.67
2018-08-24T03:56:44.336Z,18.69
2018-08-24T03:59:12.677Z,18.77
2018-08-24T04:01:41.610Z,18.88
2018-08-24T04:04:09.721Z,18.84
2018-08-24T04:06:38.365Z,18.73
2018-08-24T04:09:07.110Z,18.71
2018-08-24T04:11:35.617Z,18.87
2018-08-24T04:14:03.753Z,19.01
2018-08-24T04:16:36.393Z,19.20
2018-08-24T04:19:05.125Z,19.41
2018-08-24T04:21:33.768Z,19.56
2018-08-24T04:24:02.226Z,19.62
2018-08-24T04:26:30.674Z,19.62
2018-08-24T04:28:59.134Z,19.60
2018-08-24T04:31:27.253Z,19.54
2018-08-24T04:33:55.362Z,19.54
2018-08-24T04:36:24.013Z,19.51
2018-08-24T04:38:52.118Z,19.44
2018-08-24T04:41:20.622Z,19.40
2018-08-24T04:43:49.289Z,19.37
2018-08-24T04:46:17.838Z,19.42
2018-08-24T04:48:45.950Z,19.24
2018-08-24T04:51:14.082Z,19.05
2018-08-24T04:53:42.417Z,18.91
2018-08-24T04:56:11.047Z,18.99
2018-08-24T04:58:39.170Z,19.04
2018-08-24T05:01:07.470Z,19.07
2018-08-24T05:03:35.922Z,19.01
2018-08-24T05:06:08.246Z,18.76
2018-08-24T05:08:36.341Z,18.50
2018-08-24T05:11:05.041Z,18.44
2018-08-24T05:13:33.486Z,18.44
2018-08-24T05:16:02.569Z,18.47
2018-08-24T05:18:30.889Z,18.51
2018-08-24T05:20:59.554Z,18.63
2018-08-24T05:23:27.982Z,18.59
2018-08-24T05:25:56.453Z,18.56
2018-08-24T05:28:25.082Z,18.47
2018-08-24T05:30:53.511Z,18.41
2018-08-24T05:33:21.637Z,18.41
2018-08-24T05:35:50.078Z,18.47
2018-08-24T05:38:18.518Z,18.53
2018-08-24T05:40:47.285Z,18.50
2018-08-24T05:43:15.489Z,18.46
2018-08-24T05:45:44.061Z,18.48
2018-08-24T05:48:12.413Z,18.49
2018-08-24T05:50:40.902Z,18.45
2018-08-24T05:53:09.351Z,18.41
2018-08-24T05:55:39.386Z,18.42
2018-08-24T05:58:08.499Z,18.42
2018-08-24T06:00:38.146Z,18.37
2018-08-24T06:03:07.294Z,18.32
2018-08-24T06:05:35.814Z,18.27
2018-08-24T06:08:04.405Z,18.32
2018-08-24T06:10:32.913Z,18.45
2018-08-24T06:13:01.206Z,18.59
2018-08-24T06:15:29.762Z,18.61
2018-08-24T06:17:58.286Z,18.55
2018-08-24T06:20:26.410Z,18.54
2018-08-24T06:22:54.858Z,18.60
2018-08-24T06:25:26.758Z,18.63
2018-08-24T06:27:54.873Z,18.63
2018-08-24T06:30:23.349Z,18.65
2018-08-24T06:32:51.568Z,18.60
2018-08-24T06:35:19.842Z,18.57
2018-08-24T06:37:47.942Z,18.66
2018-08-24T06:40:16.461Z,18.82
2018-08-24T06:42:44.568Z,18.96
2018-08-24T06:45:13.033Z,19.06
2018-08-24T06:47:41.544Z,19.11
2018-08-24T06:50:10.171Z,19.07
2018-08-24T06:52:38.825Z,18.95
2018-08-24T06:55:06.970Z,18.89
2018-08-24T06:57:35.449Z,18.97
2018-08-24T07:00:03.798Z,19.08
2018-08-24T07:02:32.450Z,19.10
2018-08-24T07:05:00.886Z,19.12
2018-08-24T07:07:29.199Z,19.16
2018-08-24T07:09:57.857Z,19.20
2018-08-24T07:12:26.309Z,19.11
2018-08-24T07:14:54.981Z,18.99
2018-08-24T07:18:31.129Z,18.96
2018-08-24T07:20:59.594Z,18.91
2018-08-24T07:23:28.038Z,18.86
2018-08-24T07:25:56.154Z,18.89
2018-08-24T07:28:24.713Z,18.94
2018-08-24T07:30:52.850Z,19.00
2018-08-24T07:33:21.297Z,19.03
2018-08-24T07:35:49.455Z,19.01
2018-08-24T07:38:17.797Z,19.00
2018-08-24T07:40:45.919Z,19.01
2018-08-24T07:43:14.017Z,19.13
2018-08-24T07:45:42.118Z,19.23
2018-08-24T07:48:10.314Z,19.31
2018-08-24T07:50:38.447Z,19.44
2018-08-24T07:53:07.306Z,19.50
2018-08-24T07:55:35.405Z,19.61
2018-08-24T07:58:04.401Z,19.63
2018-08-24T08:00:32.855Z,19.61
2018-08-24T08:03:01.340Z,19.52
2018-08-24T08:05:29.504Z,19.44
2018-08-24T08:07:57.786Z,19.36
2018-08-24T08:10:30.418Z,19.32
2018-08-24T08:12:58.890Z,19.32
2018-08-24T08:15:27.501Z,19.34
2018-08-24T08:17:56.161Z,19.46
2018-08-24T08:20:24.281Z,19.42
2018-08-24T08:22:52.723Z,19.40
2018-08-24T08:25:20.923Z,19.45
2018-08-24T08:27:49.634Z,19.45
2018-08-24T08:30:18.082Z,19.42
2018-08-24T08:32:46.413Z,19.44
2018-08-24T08:35:14.969Z,19.47
2018-08-24T08:37:43.106Z,19.45
2018-08-24T08:40:11.629Z,19.45
2018-08-24T08:42:40.227Z,19.48
2018-08-24T08:45:08.333Z,19.41
2018-08-24T08:47:36.498Z,19.30
2018-08-24T08:50:04.857Z,19.22
2018-08-24T08:52:33.182Z,19.05
2018-08-24T08:55:01.624Z,18.89
2018-08-24T08:57:30.088Z,18.79
2018-08-24T08:59:58.529Z,18.68
2018-08-24T09:02:26.982Z,18.61
2018-08-24T09:04:55.574Z,18.49
2018-08-24T09:07:23.710Z,18.35
2018-08-24T09:09:52.146Z,18.23
2018-08-24T09:12:21.043Z,18.13
2018-08-24T09:14:49.157Z,18.07
2018-08-24T09:17:22.772Z,18.08
2018-08-24T09:19:56.462Z,18.10
2018-08-24T09:22:30.319Z,18.17
2018-08-24T09:25:04.209Z,18.25
2018-08-24T09:27:39.485Z,18.24
2018-08-24T09:30:07.610Z,18.25
2018-08-24T09:32:35.919Z,18.32
2018-08-24T09:35:04.400Z,18.38
2018-08-24T09:37:36.894Z,18.50
2018-08-24T09:40:05.539Z,18.79
2018-08-24T09:42:33.676Z,18.85
2018-08-24T09:45:02.433Z,18.89
2018-08-24T09:47:36.337Z,18.95
2018-08-24T09:50:10.186Z,19.06
2018-08-24T09:52:38.677Z,19.41
2018-08-24T09:55:06.873Z,19.77
2018-08-24T09:57:35.177Z,19.84
2018-08-24T10:00:03.526Z,19.77
2018-08-24T10:02:37.137Z,19.89
2018-08-24T10:05:11.113Z,20.09
2018-08-24T10:07:45.462Z,20.39
2018-08-24T10:10:13.890Z,20.66
2018-08-24T10:12:42.010Z,20.82
2018-08-24T10:15:10.169Z,20.95
2018-08-24T10:17:38.817Z,20.93
2018-08-24T10:20:07.249Z,20.91
2018-08-24T10:22:35.366Z,20.99
2018-08-24T10:25:03.822Z,21.04
2018-08-24T10:27:32.610Z,21.00
2018-08-24T10:30:01.355Z,20.83
2018-08-24T10:32:29.649Z,20.78
2018-08-24T10:34:57.769Z,20.88
2018-08-24T10:37:26.221Z,21.13
2018-08-24T10:39:54.342Z,21.48
2018-08-24T10:42:23.006Z,21.43
2018-08-24T10:44:52.199Z,21.24
2018-08-24T10:47:20.932Z,21.09
2018-08-24T10:49:49.484Z,21.24
2018-08-24T10:52:17.941Z,21.31
2018-08-24T10:54:46.116Z,21.24
2018-08-24T10:57:14.610Z,21.08
2018-08-24T10:59:43.222Z,21.18
2018-08-24T11:02:12.377Z,21.46
2018-08-24T11:04:41.122Z,21.75
2018-08-24T11:07:09.609Z,21.90
2018-08-24T11:09:38.525Z,21.98
2018-08-24T11:12:06.966Z,21.88
2018-08-24T11:14:35.432Z,21.77
2018-08-24T11:17:03.968Z,21.69
2018-08-24T11:19:32.417Z,21.65
2018-08-24T11:22:01.213Z,21.94
2018-08-24T11:24:29.941Z,22.31
2018-08-24T11:26:58.450Z,22.56
2018-08-24T11:29:27.120Z,22.76
2018-08-24T11:31:55.918Z,23.03
2018-08-24T11:34:24.374Z,23.18
2018-08-24T11:36:53.013Z,23.27
2018-08-24T11:39:21.172Z,23.29
2018-08-24T11:41:49.611Z,23.42
2018-08-24T11:44:18.247Z,23.21
2018-08-24T11:46:47.208Z,22.77
2018-08-24T11:49:15.317Z,22.45
2018-08-24T11:51:44.061Z,22.49
2018-08-24T11:54:12.244Z,22.85
2018-08-24T11:56:41.090Z,23.18
2018-08-24T11:59:09.205Z,23.69
2018-08-24T12:01:37.933Z,24.04
2018-08-24T12:04:06.275Z,24.36
2018-08-24T12:06:35.370Z,24.57
2018-08-24T12:09:04.299Z,24.63
2018-08-24T12:11:32.780Z,24.78
2018-08-24T12:14:00.920Z,24.90
2018-08-24T12:16:29.520Z,25.12
2018-08-24T12:18:58.135Z,25.27
2018-08-24T12:21:26.497Z,25.36
2018-08-24T12:23:55.130Z,25.62
2018-08-24T12:26:23.573Z,25.45
2018-08-24T12:28:52.082Z,25.03
2018-08-24T12:31:20.598Z,24.83
2018-08-24T12:33:49.334Z,24.98
2018-08-24T12:36:24.330Z,25.37
2018-08-24T12:38:58.283Z,25.66
2018-08-24T12:41:32.499Z,25.44
2018-08-24T12:44:19.494Z,25.08
2018-08-24T12:47:06.866Z,24.69
2018-08-24T12:49:49.094Z,24.35
2018-08-24T12:52:17.818Z,23.96
2018-08-24T12:54:46.550Z,23.74
2018-08-24T12:57:15.209Z,23.67
2018-08-24T12:59:43.305Z,23.87
2018-08-24T13:02:12.293Z,24.20
2018-08-24T13:04:41.022Z,24.75
2018-08-24T13:07:09.474Z,24.89
2018-08-24T13:09:37.809Z,24.75
2018-08-24T13:12:06.518Z,24.36
2018-08-24T13:14:35.157Z,24.06
2018-08-24T13:17:03.785Z,24.09
2018-08-24T13:19:32.221Z,24.30
2018-08-24T13:22:01.363Z,24.57
2018-08-24T13:24:29.795Z,24.58
2018-08-24T13:26:58.743Z,24.17
2018-08-24T13:29:26.862Z,23.86
2018-08-24T13:31:55.650Z,23.64
2018-08-24T13:34:24.371Z,23.76
2018-08-24T13:36:54.361Z,24.00
2018-08-24T13:39:22.978Z,23.93
2018-08-24T13:41:51.917Z,23.76
2018-08-24T13:44:20.741Z,23.81
2018-08-24T13:46:48.855Z,24.18
2018-08-24T13:49:17.297Z,24.69
2018-08-24T13:51:45.918Z,25.13
2018-08-24T13:54:14.357Z,25.45
2018-08-24T13:56:42.806Z,25.52
2018-08-24T13:59:11.262Z,25.61
2018-08-24T14:01:39.924Z,25.44
2018-08-24T14:04:08.161Z,25.15
2018-08-24T14:06:36.635Z,25.16
2018-08-24T14:09:07.785Z,25.12
2018-08-24T14:11:36.261Z,24.99
2018-08-24T14:15:14.685Z,24.73
2018-08-24T14:17:47.157Z,24.35
2018-08-24T14:20:15.794Z,24.19
2018-08-24T14:22:44.119Z,24.19
2018-08-24T14:25:12.603Z,24.03
2018-08-24T14:27:41.091Z,23.79
2018-08-24T14:35:16.948Z,23.78
2018-08-24T14:37:45.222Z,23.92
2018-08-24T14:40:13.873Z,23.94
2018-08-24T14:42:42.558Z,24.00
2018-08-24T14:45:11.238Z,23.95
2018-08-24T14:47:39.374Z,23.70
2018-08-24T14:50:07.781Z,23.55
2018-08-24T14:52:36.300Z,23.59
2018-08-24T14:55:04.818Z,23.67
2018-08-24T14:57:33.377Z,23.66
2018-08-24T15:00:02.014Z,23.63
2018-08-24T15:02:30.795Z,23.54
2018-08-24T15:04:59.293Z,23.42
2018-08-24T15:07:27.707Z,23.09
2018-08-24T15:09:56.179Z,22.85
2018-08-24T15:12:24.933Z,22.78
2018-08-24T15:14:53.178Z,22.72
2018-08-24T15:17:21.786Z,22.54
2018-08-24T15:19:49.898Z,22.41
2018-08-24T15:22:18.454Z,22.30
2018-08-24T15:24:47.251Z,22.28
2018-08-24T15:27:15.995Z,22.25
2018-08-24T15:29:44.139Z,22.17
2018-08-24T15:32:13.063Z,22.14
2018-08-24T15:34:41.796Z,22.02
2018-08-24T15:37:10.237Z,21.89
2018-08-24T15:39:38.570Z,21.73
2018-08-24T15:42:07.170Z,21.54
2018-08-24T15:44:35.950Z,21.39
2018-08-24T15:47:22.397Z,21.45
2018-08-24T15:50:09.347Z,21.57
2018-08-24T15:52:56.146Z,21.47
2018-08-24T15:55:25.182Z,21.60
2018-08-24T15:57:53.310Z,21.74
2018-08-24T16:00:21.698Z,21.84
2018-08-24T16:02:50.186Z,21.88
2018-08-24T16:05:19.122Z,21.85
2018-08-24T16:07:47.957Z,21.87
2018-08-24T16:10:16.972Z,21.86
2018-08-24T16:12:45.440Z,21.68
2018-08-24T16:15:14.305Z,21.40
2018-08-24T16:17:42.705Z,21.11
2018-08-24T16:20:11.425Z,21.01
2018-08-24T16:22:39.906Z,20.97
2018-08-24T16:25:08.406Z,20.92
2018-08-24T16:27:37.710Z,20.86
2018-08-24T16:30:05.927Z,20.82
2018-08-24T16:32:34.509Z,20.70
2018-08-24T16:35:03.458Z,20.67
2018-08-24T16:37:31.982Z,20.68
2018-08-24T16:40:00.562Z,20.59
2018-08-24T16:42:29.035Z,20.44
2018-08-24T16:44:57.592Z,20.35
2018-08-24T16:47:26.082Z,20.27
2018-08-24T16:49:54.885Z,20.17
2018-08-24T16:52:23.119Z,20.02
2018-08-24T16:54:52.285Z,19.94
2018-08-24T16:57:20.665Z,20.01
2018-08-24T16:59:48.798Z,20.06
2018-08-24T17:02:17.517Z,20.03
2018-08-24T17:04:45.835Z,20.01
2018-08-24T17:07:14.190Z,19.94
2018-08-24T17:09:42.305Z,19.91
2018-08-24T17:12:10.975Z,19.90
2018-08-24T17:14:39.514Z,19.84
2018-08-24T17:17:08.073Z,19.76
2018-08-24T17:19:37.402Z,19.72
2018-08-24T17:22:06.074Z,19.65
2018-08-24T17:24:34.521Z,19.59
2018-08-24T17:27:03.531Z,19.53
2018-08-24T17:29:32.398Z,19.54
2018-08-24T17:32:00.847Z,19.56
2018-08-24T17:34:29.302Z,19.49
2018-08-24T17:36:57.841Z,19.45
2018-08-24T17:39:26.557Z,19.38
2018-08-24T17:41:55.119Z,19.32
2018-08-24T17:44:23.710Z,19.35
2018-08-24T17:46:52.644Z,19.35
2018-08-24T17:49:20.831Z,19.34
2018-08-24T17:51:49.300Z,19.29
2018-08-24T17:54:17.492Z,19.23
2018-08-24T17:56:46.378Z,19.14
2018-08-24T17:59:14.875Z,19.05
2018-08-24T18:01:43.366Z,19.02
2018-08-24T18:04:12.409Z,19.00
2018-08-24T18:06:41.166Z,18.91
2018-08-24T18:09:11.215Z,18.80
2018-08-24T18:11:40.241Z,18.76
2018-08-24T18:14:08.894Z,18.77
2018-08-24T18:16:37.041Z,18.79
2018-08-24T18:19:05.380Z,18.80
2018-08-24T18:21:34.738Z,18.83
2018-08-24T18:24:03.433Z,18.78
2018-08-24T18:26:32.214Z,18.78
2018-08-24T18:29:06.193Z,18.78
2018-08-24T18:31:40.294Z,18.76
2018-08-24T18:34:14.069Z,18.70
2018-08-24T18:36:48.114Z,18.69
2018-08-24T18:39:21.910Z,18.73
2018-08-24T18:41:56.107Z,18.66
2018-08-24T18:44:30.118Z,18.63
2018-08-24T18:47:03.934Z,18.62
2018-08-24T18:49:38.106Z,18.64
2018-08-24T18:52:12.201Z,18.64
2018-08-24T18:54:40.354Z,18.68
2018-08-24T18:57:08.874Z,18.72
2018-08-24T18:59:37.122Z,18.66
2018-08-24T19:02:05.255Z,18.58
2018-08-24T19:04:33.378Z,18.57
2018-08-24T19:07:02.365Z,18.61
2018-08-24T19:09:30.842Z,18.70
2018-08-24T19:12:04.362Z,18.77
2018-08-24T19:14:32.485Z,18.87
2018-08-24T19:17:00.788Z,18.89
2018-08-24T19:19:46.870Z,18.81
2018-08-24T19:22:27.270Z,18.72
2018-08-24T19:25:08.010Z,18.74
2018-08-24T19:27:54.222Z,18.68
2018-08-24T19:30:34.858Z,18.67
2018-08-24T19:33:16.074Z,18.69
2018-08-24T19:35:44.663Z,18.80
2018-08-24T19:38:13.443Z,18.92
2018-08-24T19:40:47.310Z,18.93
2018-08-24T19:43:16.066Z,18.90
2018-08-24T19:45:44.191Z,18.93
2018-08-24T19:48:17.929Z,18.95
2018-08-24T19:50:46.203Z,18.95
2018-08-24T19:53:14.690Z,18.90
2018-08-24T19:55:43.182Z,18.90
2018-08-24T19:58:16.603Z,19.01
2018-08-24T20:00:45.349Z,19.15
2018-08-24T20:03:13.959Z,19.21
2018-08-24T20:05:47.027Z,19.11
2018-08-24T20:08:20.956Z,18.90
2018-08-24T20:10:49.487Z,18.82
2018-08-24T20:13:17.988Z,18.84
2018-08-24T20:15:51.650Z,18.91
2018-08-24T20:18:20.151Z,18.95
2018-08-24T20:20:48.380Z,19.01
2018-08-24T20:23:16.931Z,18.98
2018-08-24T20:25:45.526Z,18.94
2018-08-24T20:28:13.999Z,18.94
2018-08-24T20:30:42.710Z,18.98
2018-08-24T20:33:10.831Z,19.02
2018-08-24T20:35:39.283Z,19.08
2018-08-24T20:38:08.062Z,19.18
2018-08-24T20:40:36.606Z,19.25
2018-08-24T20:43:05.474Z,19.24
2018-08-24T20:45:33.621Z,19.16
2018-08-24T20:48:02.699Z,19.01
2018-08-24T20:50:31.481Z,18.86
2018-08-24T20:53:00.039Z,18.87
2018-08-24T20:55:28.989Z,18.85
2018-08-24T20:57:57.894Z,18.77
2018-08-24T21:00:26.658Z,18.71
2018-08-24T21:02:54.774Z,18.56
2018-08-24T21:05:23.273Z,18.35
2018-08-24T21:07:51.802Z,18.21
2018-08-24T21:10:20.266Z,18.19
2018-08-24T21:12:48.914Z,18.26
2018-08-24T21:15:29.694Z,18.33
2018-08-24T21:18:11.214Z,18.33
2018-08-24T21:20:52.315Z,18.32
2018-08-24T21:23:38.999Z,18.34
2018-08-24T21:26:25.970Z,18.42
2018-08-24T21:29:13.261Z,18.51
2018-08-24T21:31:59.834Z,18.38
2018-08-24T21:34:47.362Z,18.24
2018-08-24T21:37:34.258Z,18.20
2018-08-24T21:40:20.757Z,18.32
2018-08-24T21:43:07.254Z,18.39
2018-08-24T21:45:53.902Z,18.52
2018-08-24T21:48:23.002Z,18.60
2018-08-24T21:50:51.833Z,18.65
2018-08-24T21:53:20.288Z,18.75
2018-08-24T21:55:48.592Z,18.76
2018-08-24T21:58:18.125Z,18.74
2018-08-24T22:00:46.346Z,18.72
2018-08-24T22:03:14.826Z,18.66
2018-08-24T22:05:43.297Z,18.58
2018-08-24T22:08:11.489Z,18.61
2018-08-24T22:10:40.039Z,18.70
2018-08-24T22:13:08.781Z,18.73
2018-08-24T22:15:37.531Z,18.78
2018-08-24T22:18:05.936Z,18.84
2018-08-24T22:20:34.341Z,18.82
2018-08-24T22:23:03.022Z,18.72
2018-08-24T22:25:31.762Z,18.67
2018-08-24T22:28:00.218Z,18.62
2018-08-24T22:30:28.926Z,18.49
2018-08-24T22:32:57.976Z,18.54
2018-08-24T22:35:26.497Z,18.43
2018-08-24T22:37:54.991Z,18.15
2018-08-24T22:40:23.743Z,17.83
2018-08-24T22:42:52.179Z,17.56
2018-08-24T22:45:23.587Z,17.27
2018-08-24T22:47:53.644Z,17.04
2018-08-24T22:50:22.334Z,16.88
2018-08-24T22:52:50.842Z,16.74
2018-08-24T22:55:19.707Z,16.58
2018-08-24T22:57:48.170Z,16.46
2018-08-24T23:00:16.921Z,16.34
2018-08-24T23:02:45.512Z,16.24
2018-08-24T23:05:13.939Z,15.93
2018-08-24T23:07:42.306Z,16.09
2018-08-24T23:10:10.578Z,16.02
2018-08-24T23:12:38.711Z,15.95
2018-08-24T23:15:07.101Z,15.90
2018-08-24T23:17:35.630Z,15.81
2018-08-24T23:20:03.826Z,15.74
2018-08-24T23:22:33.237Z,15.69
2018-08-24T23:25:02.148Z,15.65
2018-08-24T23:27:30.594Z,15.63
2018-08-24T23:29:58.754Z,15.62
2018-08-24T23:32:27.401Z,15.58
2018-08-24T23:34:56.102Z,15.52
2018-08-24T23:37:24.769Z,15.44
2018-08-24T23:39:52.941Z,15.38
2018-08-24T23:42:21.434Z,15.33
2018-08-24T23:44:50.018Z,15.30
2018-08-24T23:47:18.457Z,15.29
2018-08-24T23:49:47.229Z,15.26
2018-08-24T23:52:15.959Z,15.25
2018-08-24T23:54:44.860Z,15.21
2018-08-24T23:57:13.427Z,15.18
2018-08-24T23:59:41.950Z,15.15
